»·PEaware :: N6042N KSAC-KSJC

N6042N :: KSAC-KSJC

FLIGHT INFORMATION

Flight Status: Arrived
Operator: Privately registered:
United States
More flights under this callsign
Pilot: Matt C. (16379)
Aircraft: CESSNA 172 SKYHAWK
(C172)
More flights by this aircraft type
Origin: KSAC Sacramento Executive
United States
Destination: KSJC Mineta San Jose Intl
United States
More flights between these airports :: More routes between these airports
Route: +
File this flight plan on PilotEdge
Remarks: FF
Altitude:
(Current/Filed)
3,000ft
Speed:
(Current/Filed)
0kts
Departed: 31-Aug-18 02:19 PM
Arrived: 31-Aug-18 03:06 PM
Distance/Time
Traveled:
72nm/0:47
Distance/Time
To Go:
Arrived

Flight Plot

Page will automatically refresh every two minutes.

Flight plan parsing failed; only flown route is shown


Map Options




Map Legend


Flown Route
Filed Route
Departure Airport
Arrival Airport
Navaid (VOR, NDB)
Fix

Horizontal Profiles

Position Reports

Time Latitude Longitude Heading Altitude Ground
Speed
31-Aug-18 14:10 38.517738 -121.492046 53 27ft 0kts
31-Aug-18 14:11 38.519434 -121.490324 131 27ft 0kts
31-Aug-18 14:12 38.519434 -121.490324 131 27ft 0kts
31-Aug-18 14:13 38.519434 -121.490324 131 27ft 0kts
31-Aug-18 14:14 38.519434 -121.490324 131 27ft 0kts
31-Aug-18 14:15 38.519434 -121.490324 131 27ft 0kts
31-Aug-18 14:16 38.519434 -121.490324 131 27ft 0kts
31-Aug-18 14:17 38.519434 -121.490324 131 27ft 0kts
31-Aug-18 14:18 38.519434 -121.490324 131 27ft 0kts
31-Aug-18 14:19 38.519434 -121.490324 131 27ft 0kts
31-Aug-18 14:20 38.513960 -121.493291 213 71ft 84kts
31-Aug-18 14:21 38.493721 -121.503725 194 1262ft 72kts
31-Aug-18 14:22 38.474413 -121.512160 195 2304ft 73kts
31-Aug-18 14:23 38.455304 -121.518329 189 3238ft 79kts
31-Aug-18 14:24 38.427088 -121.524826 192 3331ft 117kts
31-Aug-18 14:25 38.394426 -121.534149 192 3328ft 121kts
31-Aug-18 14:26 38.361375 -121.543572 192 3327ft 121kts
31-Aug-18 14:27 38.328259 -121.553005 192 3327ft 121kts
31-Aug-18 14:28 38.295262 -121.562396 192 3328ft 121kts
31-Aug-18 14:29 38.262225 -121.571790 192 3327ft 121kts
31-Aug-18 14:30 38.229305 -121.581913 193 3328ft 121kts
31-Aug-18 14:31 38.196515 -121.592757 194 3327ft 121kts
31-Aug-18 14:32 38.163926 -121.603541 194 3338ft 122kts
31-Aug-18 14:33 38.130897 -121.614456 194 3327ft 122kts
31-Aug-18 14:34 38.098432 -121.627419 201 3326ft 122kts
31-Aug-18 14:36 38.066860 -121.643326 201 3327ft 122kts
31-Aug-18 14:37 38.035348 -121.659200 201 3326ft 122kts
31-Aug-18 14:38 38.003791 -121.675087 201 3327ft 122kts
31-Aug-18 14:39 37.972210 -121.690976 201 3327ft 122kts
31-Aug-18 14:40 37.940609 -121.706864 201 3327ft 122kts
31-Aug-18 14:41 37.908954 -121.722084 200 3327ft 122kts
31-Aug-18 14:42 37.876962 -121.737150 199 3280ft 122kts
31-Aug-18 14:43 37.845134 -121.751997 199 3279ft 121kts
31-Aug-18 14:44 37.813656 -121.766674 199 3280ft 120kts
31-Aug-18 14:45 37.782059 -121.781396 199 3280ft 120kts
31-Aug-18 14:46 37.750571 -121.796052 199 3280ft 120kts
31-Aug-18 14:46 37.724354 -121.808249 199 3280ft 120kts
31-Aug-18 14:48 37.688409 -121.827295 227 3279ft 120kts
31-Aug-18 14:48 37.672493 -121.856152 235 3281ft 120kts
31-Aug-18 14:50 37.650484 -121.897498 235 3238ft 121kts
31-Aug-18 14:50 37.634744 -121.927061 235 3203ft 122kts
31-Aug-18 14:51 37.615830 -121.962566 235 3137ft 121kts
31-Aug-18 14:53 37.592242 -122.002674 230 2808ft 125kts
31-Aug-18 14:53 37.571952 -122.029449 222 2159ft 136kts
31-Aug-18 14:55 37.545098 -122.065484 228 1482ft 120kts
31-Aug-18 14:55 37.525911 -122.090122 213 1239ft 117kts
31-Aug-18 14:56 37.494064 -122.090436 164 1385ft 110kts
31-Aug-18 14:57 37.464269 -122.083186 176 2021ft 116kts
31-Aug-18 14:58 37.429406 -122.085792 186 1903ft 126kts
31-Aug-18 14:59 37.399216 -122.073162 138 1030ft 101kts
31-Aug-18 15:00 37.377162 -122.055119 135 967ft 96kts
31-Aug-18 15:01 37.364586 -122.022855 97 1380ft 122kts
31-Aug-18 15:02 37.365205 -121.977895 99 1295ft 126kts
31-Aug-18 15:03 37.350429 -121.945997 138 1207ft 101kts
31-Aug-18 15:04 37.332689 -121.923954 152 1238ft 75kts
31-Aug-18 15:05 37.341339 -121.904654 1 693ft 74kts
31-Aug-18 15:06 37.354529 -121.920906 318 120ft 64kts
31-Aug-18 15:07 37.362266 -121.929804 288 66ft 17kts
31-Aug-18 15:08 37.362119 -121.933776 312 66ft 18kts
31-Aug-18 15:09 37.361890 -121.934939 56 66ft 0kts
31-Aug-18 15:10 37.361890 -121.934939 56 66ft 0kts
31-Aug-18 15:11 37.361890 -121.934939 56 66ft 0kts

Navigation Log

Ident Type
Flight plan parsing failed, navigation log unavailable